sensor_id;sensor_type;location;lat;lon;timestamp;temperature;humidity
45491;DHT22;31237;45.586;13.782;2022-10-16T00:01:20;14.10;91.10
45491;DHT22;31237;45.586;13.782;2022-10-16T00:03:48;14.10;91.10
45491;DHT22;31237;45.586;13.782;2022-10-16T00:06:15;14.10;91.10
45491;DHT22;31237;45.586;13.782;2022-10-16T00:08:42;14.00;91.20
45491;DHT22;31237;45.586;13.782;2022-10-16T00:11:13;14.10;91.20
45491;DHT22;31237;45.586;13.782;2022-10-16T00:13:41;14.10;91.30
45491;DHT22;31237;45.586;13.782;2022-10-16T00:16:08;14.10;91.20
45491;DHT22;31237;45.586;13.782;2022-10-16T00:18:35;14.10;91.30
45491;DHT22;31237;45.586;13.782;2022-10-16T00:21:13;14.00;91.20
45491;DHT22;31237;45.586;13.782;2022-10-16T00:23:39;14.00;91.30
45491;DHT22;31237;45.586;13.782;2022-10-16T00:26:07;14.00;91.30
45491;DHT22;31237;45.586;13.782;2022-10-16T00:28:34;14.00;91.30
45491;DHT22;31237;45.586;13.782;2022-10-16T00:31:07;14.00;91.40
45491;DHT22;31237;45.586;13.782;2022-10-16T00:33:33;14.00;91.40
45491;DHT22;31237;45.586;13.782;2022-10-16T00:36:00;14.00;91.40
45491;DHT22;31237;45.586;13.782;2022-10-16T00:38:26;14.00;91.50
45491;DHT22;31237;45.586;13.782;2022-10-16T00:40:52;14.00;91.50
45491;DHT22;31237;45.586;13.782;2022-10-16T00:43:44;14.00;91.50
45491;DHT22;31237;45.586;13.782;2022-10-16T00:46:20;14.00;91.50
45491;DHT22;31237;45.586;13.782;2022-10-16T00:49:02;14.00;91.50
45491;DHT22;31237;45.586;13.782;2022-10-16T00:51:34;14.00;91.60
45491;DHT22;31237;45.586;13.782;2022-10-16T00:54:02;14.00;91.60
45491;DHT22;31237;45.586;13.782;2022-10-16T00:56:29;14.00;91.60
45491;DHT22;31237;45.586;13.782;2022-10-16T00:58:55;14.00;91.60
45491;DHT22;31237;45.586;13.782;2022-10-16T01:01:20;14.00;91.70
45491;DHT22;31237;45.586;13.782;2022-10-16T01:03:46;14.00;91.70
45491;DHT22;31237;45.586;13.782;2022-10-16T01:06:32;14.00;91.70
45491;DHT22;31237;45.586;13.782;2022-10-16T01:14:37;14.00;91.80
45491;DHT22;31237;45.586;13.782;2022-10-16T01:17:10;14.10;91.80
45491;DHT22;31237;45.586;13.782;2022-10-16T01:22:21;14.10;91.90
45491;DHT22;31237;45.586;13.782;2022-10-16T01:24:50;14.20;91.90
45491;DHT22;31237;45.586;13.782;2022-10-16T01:27:25;14.20;91.90
45491;DHT22;31237;45.586;13.782;2022-10-16T01:30:23;14.20;91.90
45491;DHT22;31237;45.586;13.782;2022-10-16T01:35:31;14.20;91.80
45491;DHT22;31237;45.586;13.782;2022-10-16T01:38:02;14.20;91.80
45491;DHT22;31237;45.586;13.782;2022-10-16T01:40:29;14.20;91.90
45491;DHT22;31237;45.586;13.782;2022-10-16T01:43:20;14.20;91.90
45491;DHT22;31237;45.586;13.782;2022-10-16T01:45:48;14.20;91.90
45491;DHT22;31237;45.586;13.782;2022-10-16T01:48:17;14.20;92.00
45491;DHT22;31237;45.586;13.782;2022-10-16T01:53:48;14.20;92.00
45491;DHT22;31237;45.586;13.782;2022-10-16T01:56:17;14.20;92.00
45491;DHT22;31237;45.586;13.782;2022-10-16T01:58:51;14.20;92.00
45491;DHT22;31237;45.586;13.782;2022-10-16T02:01:20;14.20;92.10
45491;DHT22;31237;45.586;13.782;2022-10-16T02:03:51;14.20;92.10
45491;DHT22;31237;45.586;13.782;2022-10-16T02:06:18;14.20;92.10
45491;DHT22;31237;45.586;13.782;2022-10-16T02:08:46;14.20;92.00
45491;DHT22;31237;45.586;13.782;2022-10-16T02:11:12;14.10;92.10
45491;DHT22;31237;45.586;13.782;2022-10-16T02:13:53;14.10;92.10
45491;DHT22;31237;45.586;13.782;2022-10-16T02:16:20;14.20;92.10
45491;DHT22;31237;45.586;13.782;2022-10-16T02:18:46;14.20;92.10
45491;DHT22;31237;45.586;13.782;2022-10-16T02:29:08;14.20;92.20
45491;DHT22;31237;45.586;13.782;2022-10-16T02:31:41;14.30;92.20
45491;DHT22;31237;45.586;13.782;2022-10-16T02:34:09;14.30;92.20
45491;DHT22;31237;45.586;13.782;2022-10-16T02:36:38;14.30;92.20
45491;DHT22;31237;45.586;13.782;2022-10-16T02:39:04;14.40;92.20
45491;DHT22;31237;45.586;13.782;2022-10-16T02:41:31;14.40;92.20
45491;DHT22;31237;45.586;13.782;2022-10-16T02:43:57;14.40;92.10
45491;DHT22;31237;45.586;13.782;2022-10-16T02:46:22;14.50;92.10
45491;DHT22;31237;45.586;13.782;2022-10-16T02:48:48;14.50;92.10
45491;DHT22;31237;45.586;13.782;2022-10-16T02:51:14;14.60;92.10
45491;DHT22;31237;45.586;13.782;2022-10-16T02:53:40;14.60;92.10
45491;DHT22;31237;45.586;13.782;2022-10-16T02:56:06;14.70;92.10
45491;DHT22;31237;45.586;13.782;2022-10-16T02:58:31;14.70;92.10
45491;DHT22;31237;45.586;13.782;2022-10-16T03:00:57;14.70;92.10
45491;DHT22;31237;45.586;13.782;2022-10-16T03:03:23;14.80;92.00
45491;DHT22;31237;45.586;13.782;2022-10-16T03:05:48;14.80;92.00
45491;DHT22;31237;45.586;13.782;2022-10-16T03:08:14;14.90;92.00
45491;DHT22;31237;45.586;13.782;2022-10-16T03:10:43;14.90;92.00
45491;DHT22;31237;45.586;13.782;2022-10-16T03:13:09;14.90;91.90
45491;DHT22;31237;45.586;13.782;2022-10-16T03:15:34;15.00;91.90
45491;DHT22;31237;45.586;13.782;2022-10-16T03:18:00;15.00;91.80
45491;DHT22;31237;45.586;13.782;2022-10-16T03:20:26;15.00;91.80
45491;DHT22;31237;45.586;13.782;2022-10-16T03:22:52;15.00;91.80
45491;DHT22;31237;45.586;13.782;2022-10-16T03:25:18;15.10;91.70
45491;DHT22;31237;45.586;13.782;2022-10-16T03:27:44;15.00;91.70
45491;DHT22;31237;45.586;13.782;2022-10-16T03:30:10;15.10;91.60
45491;DHT22;31237;45.586;13.782;2022-10-16T03:32:35;15.10;91.60
45491;DHT22;31237;45.586;13.782;2022-10-16T03:35:01;15.10;91.50
45491;DHT22;31237;45.586;13.782;2022-10-16T03:37:27;15.10;91.50
45491;DHT22;31237;45.586;13.782;2022-10-16T03:39:53;15.10;91.50
45491;DHT22;31237;45.586;13.782;2022-10-16T03:42:18;15.10;91.40
45491;DHT22;31237;45.586;13.782;2022-10-16T03:44:44;15.10;91.40
45491;DHT22;31237;45.586;13.782;2022-10-16T03:47:10;15.10;91.30
45491;DHT22;31237;45.586;13.782;2022-10-16T03:49:36;15.20;91.30
45491;DHT22;31237;45.586;13.782;2022-10-16T03:52:01;15.10;91.30
45491;DHT22;31237;45.586;13.782;2022-10-16T03:54:27;15.20;91.20
45491;DHT22;31237;45.586;13.782;2022-10-16T03:56:53;15.20;91.20
45491;DHT22;31237;45.586;13.782;2022-10-16T03:59:19;15.20;91.20
45491;DHT22;31237;45.586;13.782;2022-10-16T04:01:44;15.10;91.10
45491;DHT22;31237;45.586;13.782;2022-10-16T04:04:10;15.10;91.10
45491;DHT22;31237;45.586;13.782;2022-10-16T04:06:36;15.10;91.10
45491;DHT22;31237;45.586;13.782;2022-10-16T04:09:02;15.10;91.10
45491;DHT22;31237;45.586;13.782;2022-10-16T04:11:27;15.10;91.10
45491;DHT22;31237;45.586;13.782;2022-10-16T04:13:53;15.10;91.00
45491;DHT22;31237;45.586;13.782;2022-10-16T04:16:19;15.10;91.00
45491;DHT22;31237;45.586;13.782;2022-10-16T04:18:45;15.10;90.90
45491;DHT22;31237;45.586;13.782;2022-10-16T04:21:11;15.00;90.90
45491;DHT22;31237;45.586;13.782;2022-10-16T04:23:36;15.00;90.90
45491;DHT22;31237;45.586;13.782;2022-10-16T04:26:02;15.00;90.90
45491;DHT22;31237;45.586;13.782;2022-10-16T04:28:28;15.00;90.90
45491;DHT22;31237;45.586;13.782;2022-10-16T04:30:54;14.90;90.90
45491;DHT22;31237;45.586;13.782;2022-10-16T04:33:19;14.90;90.90
45491;DHT22;31237;45.586;13.782;2022-10-16T04:35:45;14.90;90.90
45491;DHT22;31237;45.586;13.782;2022-10-16T04:38:11;14.90;90.90
45491;DHT22;31237;45.586;13.782;2022-10-16T04:40:36;14.80;90.90
45491;DHT22;31237;45.586;13.782;2022-10-16T04:43:03;14.90;90.90
45491;DHT22;31237;45.586;13.782;2022-10-16T04:45:30;14.80;90.90
45491;DHT22;31237;45.586;13.782;2022-10-16T04:48:00;14.80;90.90
45491;DHT22;31237;45.586;13.782;2022-10-16T04:50:26;14.80;90.90
45491;DHT22;31237;45.586;13.782;2022-10-16T04:52:51;14.80;90.90
45491;DHT22;31237;45.586;13.782;2022-10-16T04:55:17;14.80;90.90
45491;DHT22;31237;45.586;13.782;2022-10-16T04:57:43;14.70;90.90
45491;DHT22;31237;45.586;13.782;2022-10-16T05:00:09;14.70;90.90
45491;DHT22;31237;45.586;13.782;2022-10-16T05:02:35;14.70;90.80
45491;DHT22;31237;45.586;13.782;2022-10-16T05:05:00;14.70;90.80
45491;DHT22;31237;45.586;13.782;2022-10-16T05:07:26;14.70;90.80
45491;DHT22;31237;45.586;13.782;2022-10-16T05:09:52;14.70;90.80
45491;DHT22;31237;45.586;13.782;2022-10-16T05:12:18;14.60;90.80
45491;DHT22;31237;45.586;13.782;2022-10-16T05:14:44;14.60;90.80
45491;DHT22;31237;45.586;13.782;2022-10-16T05:17:10;14.60;90.80
45491;DHT22;31237;45.586;13.782;2022-10-16T05:19:35;14.60;90.80
45491;DHT22;31237;45.586;13.782;2022-10-16T05:22:01;14.60;90.90
45491;DHT22;31237;45.586;13.782;2022-10-16T05:24:27;14.60;90.90
45491;DHT22;31237;45.586;13.782;2022-10-16T05:26:53;14.60;90.80
45491;DHT22;31237;45.586;13.782;2022-10-16T05:29:19;14.60;90.80
45491;DHT22;31237;45.586;13.782;2022-10-16T05:31:45;14.60;90.80
45491;DHT22;31237;45.586;13.782;2022-10-16T05:34:10;14.60;90.80
45491;DHT22;31237;45.586;13.782;2022-10-16T05:36:36;14.60;90.80
45491;DHT22;31237;45.586;13.782;2022-10-16T05:39:02;14.60;90.80
45491;DHT22;31237;45.586;13.782;2022-10-16T05:41:28;14.60;90.80
45491;DHT22;31237;45.586;13.782;2022-10-16T05:43:54;14.60;90.80
45491;DHT22;31237;45.586;13.782;2022-10-16T05:46:20;14.70;90.70
45491;DHT22;31237;45.586;13.782;2022-10-16T05:48:46;14.70;90.70
45491;DHT22;31237;45.586;13.782;2022-10-16T05:51:14;14.70;90.70
45491;DHT22;31237;45.586;13.782;2022-10-16T05:53:42;14.70;90.60
45491;DHT22;31237;45.586;13.782;2022-10-16T05:56:10;14.70;90.50
45491;DHT22;31237;45.586;13.782;2022-10-16T05:58:37;14.80;90.60
45491;DHT22;31237;45.586;13.782;2022-10-16T06:01:10;14.80;90.50
45491;DHT22;31237;45.586;13.782;2022-10-16T06:03:36;14.80;90.50
45491;DHT22;31237;45.586;13.782;2022-10-16T06:08:39;14.90;90.40
45491;DHT22;31237;45.586;13.782;2022-10-16T06:11:07;14.90;90.40
45491;DHT22;31237;45.586;13.782;2022-10-16T06:13:34;14.90;90.30
45491;DHT22;31237;45.586;13.782;2022-10-16T06:16:01;14.90;90.30
45491;DHT22;31237;45.586;13.782;2022-10-16T06:18:28;15.00;90.30
45491;DHT22;31237;45.586;13.782;2022-10-16T06:20:55;15.00;90.30
45491;DHT22;31237;45.586;13.782;2022-10-16T06:23:21;15.00;90.30
45491;DHT22;31237;45.586;13.782;2022-10-16T06:25:47;15.00;90.20
45491;DHT22;31237;45.586;13.782;2022-10-16T06:28:14;15.10;90.20
45491;DHT22;31237;45.586;13.782;2022-10-16T06:30:40;15.10;90.20
45491;DHT22;31237;45.586;13.782;2022-10-16T06:33:08;15.10;90.20
45491;DHT22;31237;45.586;13.782;2022-10-16T06:35:34;15.20;90.20
45491;DHT22;31237;45.586;13.782;2022-10-16T06:37:59;15.20;90.10
45491;DHT22;31237;45.586;13.782;2022-10-16T06:40:26;15.30;90.10
45491;DHT22;31237;45.586;13.782;2022-10-16T06:42:54;15.30;90.00
45491;DHT22;31237;45.586;13.782;2022-10-16T06:45:20;15.40;90.00
45491;DHT22;31237;45.586;13.782;2022-10-16T06:47:46;15.50;90.00
45491;DHT22;31237;45.586;13.782;2022-10-16T06:50:11;15.50;90.00
45491;DHT22;31237;45.586;13.782;2022-10-16T06:52:37;15.50;89.80
45491;DHT22;31237;45.586;13.782;2022-10-16T06:55:03;15.60;89.70
45491;DHT22;31237;45.586;13.782;2022-10-16T06:57:29;15.60;89.70
45491;DHT22;31237;45.586;13.782;2022-10-16T06:59:55;15.70;89.70
45491;DHT22;31237;45.586;13.782;2022-10-16T07:02:20;15.70;89.60
45491;DHT22;31237;45.586;13.782;2022-10-16T07:04:46;15.80;89.70
45491;DHT22;31237;45.586;13.782;2022-10-16T07:07:12;15.80;89.80
45491;DHT22;31237;45.586;13.782;2022-10-16T07:09:37;15.90;89.70
45491;DHT22;31237;45.586;13.782;2022-10-16T07:12:04;15.90;89.60
45491;DHT22;31237;45.586;13.782;2022-10-16T07:14:30;16.00;89.70
45491;DHT22;31237;45.586;13.782;2022-10-16T07:16:56;16.00;89.60
45491;DHT22;31237;45.586;13.782;2022-10-16T07:19:21;16.00;89.60
45491;DHT22;31237;45.586;13.782;2022-10-16T07:21:47;16.10;89.60
45491;DHT22;31237;45.586;13.782;2022-10-16T07:24:14;16.20;89.60
45491;DHT22;31237;45.586;13.782;2022-10-16T07:26:41;16.30;89.40
45491;DHT22;31237;45.586;13.782;2022-10-16T07:29:16;16.30;89.30
45491;DHT22;31237;45.586;13.782;2022-10-16T07:31:43;16.40;89.40
45491;DHT22;31237;45.586;13.782;2022-10-16T07:34:11;16.50;89.50
45491;DHT22;31237;45.586;13.782;2022-10-16T07:36:37;16.60;89.20
45491;DHT22;31237;45.586;13.782;2022-10-16T07:39:03;16.60;88.90
45491;DHT22;31237;45.586;13.782;2022-10-16T07:41:29;16.60;88.70
45491;DHT22;31237;45.586;13.782;2022-10-16T07:43:55;16.70;88.70
45491;DHT22;31237;45.586;13.782;2022-10-16T07:46:25;16.70;88.60
45491;DHT22;31237;45.586;13.782;2022-10-16T07:48:51;16.80;88.80
45491;DHT22;31237;45.586;13.782;2022-10-16T07:51:19;16.90;89.00
45491;DHT22;31237;45.586;13.782;2022-10-16T07:53:46;17.00;89.70
45491;DHT22;31237;45.586;13.782;2022-10-16T07:56:12;17.10;89.20
45491;DHT22;31237;45.586;13.782;2022-10-16T07:58:38;17.10;89.00
45491;DHT22;31237;45.586;13.782;2022-10-16T08:01:09;17.20;88.90
45491;DHT22;31237;45.586;13.782;2022-10-16T08:03:35;17.20;88.20
45491;DHT22;31237;45.586;13.782;2022-10-16T08:06:02;17.30;87.40
45491;DHT22;31237;45.586;13.782;2022-10-16T08:08:28;17.40;87.60
45491;DHT22;31237;45.586;13.782;2022-10-16T08:10:54;17.50;87.80
45491;DHT22;31237;45.586;13.782;2022-10-16T08:13:20;17.50;87.50
45491;DHT22;31237;45.586;13.782;2022-10-16T08:15:46;17.60;87.10
45491;DHT22;31237;45.586;13.782;2022-10-16T08:18:13;17.70;86.80
45491;DHT22;31237;45.586;13.782;2022-10-16T08:20:40;17.70;86.60
45491;DHT22;31237;45.586;13.782;2022-10-16T08:23:06;17.80;86.60
45491;DHT22;31237;45.586;13.782;2022-10-16T08:25:34;17.90;86.80
45491;DHT22;31237;45.586;13.782;2022-10-16T08:28:07;18.00;86.30
45491;DHT22;31237;45.586;13.782;2022-10-16T08:30:33;18.10;86.30
45491;DHT22;31237;45.586;13.782;2022-10-16T08:32:59;18.20;86.10
45491;DHT22;31237;45.586;13.782;2022-10-16T08:35:25;18.20;85.80
45491;DHT22;31237;45.586;13.782;2022-10-16T08:37:50;18.30;85.80
45491;DHT22;31237;45.586;13.782;2022-10-16T08:40:38;18.40;85.60
45491;DHT22;31237;45.586;13.782;2022-10-16T08:48:35;18.60;85.50
45491;DHT22;31237;45.586;13.782;2022-10-16T08:51:04;18.70;85.20
45491;DHT22;31237;45.586;13.782;2022-10-16T08:56:14;18.80;84.60
45491;DHT22;31237;45.586;13.782;2022-10-16T08:58:40;18.90;84.30
45491;DHT22;31237;45.586;13.782;2022-10-16T09:01:13;19.00;84.20
45491;DHT22;31237;45.586;13.782;2022-10-16T09:22:29;19.60;83.70
45491;DHT22;31237;45.586;13.782;2022-10-16T09:25:00;19.60;83.20
45491;DHT22;31237;45.586;13.782;2022-10-16T09:27:30;19.70;83.20
45491;DHT22;31237;45.586;13.782;2022-10-16T09:29:56;19.80;83.20
45491;DHT22;31237;45.586;13.782;2022-10-16T09:32:22;19.80;83.30
45491;DHT22;31237;45.586;13.782;2022-10-16T09:34:51;19.90;83.20
45491;DHT22;31237;45.586;13.782;2022-10-16T09:37:20;20.00;82.70
45491;DHT22;31237;45.586;13.782;2022-10-16T09:39:48;20.00;82.20
45491;DHT22;31237;45.586;13.782;2022-10-16T09:42:27;20.00;82.00
45491;DHT22;31237;45.586;13.782;2022-10-16T09:44:53;20.00;81.90
45491;DHT22;31237;45.586;13.782;2022-10-16T09:47:29;20.00;81.80
45491;DHT22;31237;45.586;13.782;2022-10-16T09:50:01;20.00;81.40
45491;DHT22;31237;45.586;13.782;2022-10-16T09:52:28;20.00;81.20
45491;DHT22;31237;45.586;13.782;2022-10-16T09:55:09;20.00;81.40
45491;DHT22;31237;45.586;13.782;2022-10-16T09:57:48;20.00;81.10
45491;DHT22;31237;45.586;13.782;2022-10-16T10:00:17;20.00;81.10
45491;DHT22;31237;45.586;13.782;2022-10-16T10:02:44;20.00;80.90
45491;DHT22;31237;45.586;13.782;2022-10-16T10:05:23;20.00;80.80
45491;DHT22;31237;45.586;13.782;2022-10-16T10:07:59;20.00;81.00
45491;DHT22;31237;45.586;13.782;2022-10-16T10:10:33;20.00;80.80
45491;DHT22;31237;45.586;13.782;2022-10-16T10:13:00;20.00;80.70
45491;DHT22;31237;45.586;13.782;2022-10-16T10:15:29;20.00;80.30
45491;DHT22;31237;45.586;13.782;2022-10-16T10:17:58;20.00;80.40
45491;DHT22;31237;45.586;13.782;2022-10-16T10:20:30;20.00;80.70
45491;DHT22;31237;45.586;13.782;2022-10-16T10:22:58;20.00;80.60
45491;DHT22;31237;45.586;13.782;2022-10-16T10:25:42;20.00;80.80
45491;DHT22;31237;45.586;13.782;2022-10-16T10:28:38;20.00;80.90
45491;DHT22;31237;45.586;13.782;2022-10-16T10:33:53;20.00;80.70
45491;DHT22;31237;45.586;13.782;2022-10-16T10:36:38;20.00;80.50
45491;DHT22;31237;45.586;13.782;2022-10-16T10:39:08;20.10;80.50
45491;DHT22;31237;45.586;13.782;2022-10-16T10:47:05;20.20;79.90
45491;DHT22;31237;45.586;13.782;2022-10-16T10:52:48;20.30;79.90
45491;DHT22;31237;45.586;13.782;2022-10-16T10:55:33;20.40;79.90
45491;DHT22;31237;45.586;13.782;2022-10-16T11:03:42;20.50;79.40
45491;DHT22;31237;45.586;13.782;2022-10-16T11:06:16;20.60;79.60
45491;DHT22;31237;45.586;13.782;2022-10-16T11:11:33;20.60;79.40
45491;DHT22;31237;45.586;13.782;2022-10-16T11:14:04;20.60;79.40
45491;DHT22;31237;45.586;13.782;2022-10-16T11:16:39;20.60;79.40
45491;DHT22;31237;45.586;13.782;2022-10-16T11:24:48;20.50;79.00
45491;DHT22;31237;45.586;13.782;2022-10-16T11:28:23;20.40;78.40
45491;DHT22;31237;45.586;13.782;2022-10-16T11:30:23;20.40;78.60
45491;DHT22;31237;45.586;13.782;2022-10-16T11:32:56;20.30;78.60
45491;DHT22;31237;45.586;13.782;2022-10-16T11:35:52;20.30;78.90
45491;DHT22;31237;45.586;13.782;2022-10-16T11:38:32;20.30;78.90
45491;DHT22;31237;45.586;13.782;2022-10-16T11:41:33;20.40;79.00
45491;DHT22;31237;45.586;13.782;2022-10-16T11:44:43;20.40;79.10
45491;DHT22;31237;45.586;13.782;2022-10-16T11:47:42;20.40;79.00
45491;DHT22;31237;45.586;13.782;2022-10-16T11:50:30;20.40;78.90
45491;DHT22;31237;45.586;13.782;2022-10-16T11:55:43;20.40;79.00
45491;DHT22;31237;45.586;13.782;2022-10-16T12:06:44;20.40;78.90
45491;DHT22;31237;45.586;13.782;2022-10-16T12:09:24;20.40;78.80
45491;DHT22;31237;45.586;13.782;2022-10-16T12:11:51;20.40;79.00
45491;DHT22;31237;45.586;13.782;2022-10-16T12:14:33;20.40;78.80
45491;DHT22;31237;45.586;13.782;2022-10-16T12:17:03;20.40;78.30
45491;DHT22;31237;45.586;13.782;2022-10-16T12:19:32;20.30;78.40
45491;DHT22;31237;45.586;13.782;2022-10-16T12:22:00;20.30;78.20
45491;DHT22;31237;45.586;13.782;2022-10-16T12:24:36;20.30;78.20
45491;DHT22;31237;45.586;13.782;2022-10-16T12:27:05;20.30;78.30
45491;DHT22;31237;45.586;13.782;2022-10-16T12:29:41;20.30;78.50
45491;DHT22;31237;45.586;13.782;2022-10-16T12:32:31;20.30;78.80
45491;DHT22;31237;45.586;13.782;2022-10-16T12:34:59;20.30;78.70
45491;DHT22;31237;45.586;13.782;2022-10-16T12:37:28;20.30;78.80
45491;DHT22;31237;45.586;13.782;2022-10-16T12:39:57;20.30;78.80
45491;DHT22;31237;45.586;13.782;2022-10-16T12:42:32;20.30;79.00
45491;DHT22;31237;45.586;13.782;2022-10-16T12:44:59;20.30;79.20
45491;DHT22;31237;45.586;13.782;2022-10-16T12:49:58;20.30;79.60
45491;DHT22;31237;45.586;13.782;2022-10-16T12:52:35;20.20;79.70
45491;DHT22;31237;45.586;13.782;2022-10-16T12:55:04;20.20;79.90
45491;DHT22;31237;45.586;13.782;2022-10-16T12:57:59;20.20;80.50
45491;DHT22;31237;45.586;13.782;2022-10-16T13:00:32;20.20;80.60
45491;DHT22;31237;45.586;13.782;2022-10-16T13:14:00;20.30;81.40
45491;DHT22;31237;45.586;13.782;2022-10-16T13:17:13;20.30;81.30
45491;DHT22;31237;45.586;13.782;2022-10-16T13:22:32;20.30;81.40
45491;DHT22;31237;45.586;13.782;2022-10-16T13:25:13;20.20;81.40
45491;DHT22;31237;45.586;13.782;2022-10-16T13:30:31;20.10;81.60
45491;DHT22;31237;45.586;13.782;2022-10-16T13:33:18;20.10;81.70
45491;DHT22;31237;45.586;13.782;2022-10-16T13:35:52;20.10;81.80
45491;DHT22;31237;45.586;13.782;2022-10-16T13:38:24;20.00;81.90
45491;DHT22;31237;45.586;13.782;2022-10-16T13:41:00;20.00;82.00
45491;DHT22;31237;45.586;13.782;2022-10-16T13:43:39;20.00;82.20
45491;DHT22;31237;45.586;13.782;2022-10-16T13:46:12;20.00;82.10
45491;DHT22;31237;45.586;13.782;2022-10-16T13:48:38;19.90;82.20
45491;DHT22;31237;45.586;13.782;2022-10-16T13:51:06;19.90;82.40
45491;DHT22;31237;45.586;13.782;2022-10-16T13:53:36;19.90;82.40
45491;DHT22;31237;45.586;13.782;2022-10-16T13:56:05;19.90;82.30
45491;DHT22;31237;45.586;13.782;2022-10-16T13:58:31;19.80;82.40
45491;DHT22;31237;45.586;13.782;2022-10-16T14:01:22;19.80;82.50
45491;DHT22;31237;45.586;13.782;2022-10-16T14:03:46;19.80;82.50
45491;DHT22;31237;45.586;13.782;2022-10-16T14:06:30;19.70;82.70
45491;DHT22;31237;45.586;13.782;2022-10-16T14:09:06;19.70;82.70
45491;DHT22;31237;45.586;13.782;2022-10-16T14:11:35;19.60;82.80
45491;DHT22;31237;45.586;13.782;2022-10-16T14:14:02;19.60;83.10
45491;DHT22;31237;45.586;13.782;2022-10-16T14:16:30;19.50;83.10
45491;DHT22;31237;45.586;13.782;2022-10-16T14:19:02;19.50;83.20
45491;DHT22;31237;45.586;13.782;2022-10-16T14:21:29;19.50;83.20
45491;DHT22;31237;45.586;13.782;2022-10-16T14:23:55;19.50;83.30
45491;DHT22;31237;45.586;13.782;2022-10-16T14:26:27;19.50;83.40
45491;DHT22;31237;45.586;13.782;2022-10-16T14:29:15;19.40;83.50
45491;DHT22;31237;45.586;13.782;2022-10-16T14:31:42;19.40;83.50
45491;DHT22;31237;45.586;13.782;2022-10-16T14:34:36;19.30;83.60
45491;DHT22;31237;45.586;13.782;2022-10-16T14:37:17;19.30;83.80
45491;DHT22;31237;45.586;13.782;2022-10-16T14:39:51;19.30;83.90
45491;DHT22;31237;45.586;13.782;2022-10-16T14:42:19;19.30;84.00
45491;DHT22;31237;45.586;13.782;2022-10-16T14:44:46;19.30;84.20
45491;DHT22;31237;45.586;13.782;2022-10-16T14:47:16;19.20;84.20
45491;DHT22;31237;45.586;13.782;2022-10-16T14:49:42;19.30;84.40
45491;DHT22;31237;45.586;13.782;2022-10-16T14:52:11;19.30;84.50
45491;DHT22;31237;45.586;13.782;2022-10-16T14:54:37;19.30;84.40
45491;DHT22;31237;45.586;13.782;2022-10-16T14:57:03;19.20;84.40
45491;DHT22;31237;45.586;13.782;2022-10-16T14:59:35;19.20;84.40
45491;DHT22;31237;45.586;13.782;2022-10-16T15:02:34;19.20;84.50
45491;DHT22;31237;45.586;13.782;2022-10-16T15:07:46;19.20;84.70
45491;DHT22;31237;45.586;13.782;2022-10-16T15:10:13;19.20;84.80
45491;DHT22;31237;45.586;13.782;2022-10-16T15:12:39;19.20;85.00
45491;DHT22;31237;45.586;13.782;2022-10-16T15:17:42;19.10;85.00
45491;DHT22;31237;45.586;13.782;2022-10-16T15:20:08;19.10;85.10
45491;DHT22;31237;45.586;13.782;2022-10-16T15:22:34;19.00;85.10
45491;DHT22;31237;45.586;13.782;2022-10-16T15:24:59;19.00;85.30
45491;DHT22;31237;45.586;13.782;2022-10-16T15:27:25;19.00;85.40
45491;DHT22;31237;45.586;13.782;2022-10-16T15:29:51;18.90;85.50
45491;DHT22;31237;45.586;13.782;2022-10-16T15:32:17;18.90;85.60
45491;DHT22;31237;45.586;13.782;2022-10-16T15:34:42;18.80;85.70
45491;DHT22;31237;45.586;13.782;2022-10-16T15:37:08;18.80;85.80
45491;DHT22;31237;45.586;13.782;2022-10-16T15:39:34;18.70;86.40
45491;DHT22;31237;45.586;13.782;2022-10-16T15:42:00;18.60;85.80
45491;DHT22;31237;45.586;13.782;2022-10-16T15:44:25;18.60;86.00
45491;DHT22;31237;45.586;13.782;2022-10-16T15:46:55;18.50;86.10
45491;DHT22;31237;45.586;13.782;2022-10-16T15:49:22;18.50;86.30
45491;DHT22;31237;45.586;13.782;2022-10-16T15:51:47;18.40;86.40
45491;DHT22;31237;45.586;13.782;2022-10-16T15:54:13;18.30;86.20
45491;DHT22;31237;45.586;13.782;2022-10-16T15:56:38;18.30;86.30
45491;DHT22;31237;45.586;13.782;2022-10-16T15:59:05;18.20;86.40
45491;DHT22;31237;45.586;13.782;2022-10-16T16:01:35;18.10;86.50
45491;DHT22;31237;45.586;13.782;2022-10-16T16:04:01;18.10;86.60
45491;DHT22;31237;45.586;13.782;2022-10-16T16:06:27;18.00;86.60
45491;DHT22;31237;45.586;13.782;2022-10-16T16:08:52;17.90;86.60
45491;DHT22;31237;45.586;13.782;2022-10-16T16:11:20;17.90;86.80
45491;DHT22;31237;45.586;13.782;2022-10-16T16:13:46;17.80;86.80
45491;DHT22;31237;45.586;13.782;2022-10-16T16:16:14;17.70;86.80
45491;DHT22;31237;45.586;13.782;2022-10-16T16:18:40;17.60;86.80
45491;DHT22;31237;45.586;13.782;2022-10-16T16:21:06;17.60;86.80
45491;DHT22;31237;45.586;13.782;2022-10-16T16:23:32;17.50;86.80
45491;DHT22;31237;45.586;13.782;2022-10-16T16:28:37;17.40;86.70
45491;DHT22;31237;45.586;13.782;2022-10-16T16:31:03;17.30;86.70
45491;DHT22;31237;45.586;13.782;2022-10-16T16:33:29;17.20;86.70
45491;DHT22;31237;45.586;13.782;2022-10-16T16:36:02;17.10;86.60
45491;DHT22;31237;45.586;13.782;2022-10-16T16:38:29;17.10;86.70
45491;DHT22;31237;45.586;13.782;2022-10-16T16:40:55;17.00;86.80
45491;DHT22;31237;45.586;13.782;2022-10-16T16:43:25;16.90;86.80
45491;DHT22;31237;45.586;13.782;2022-10-16T16:45:52;16.90;86.90
45491;DHT22;31237;45.586;13.782;2022-10-16T16:48:19;16.80;87.00
45491;DHT22;31237;45.586;13.782;2022-10-16T16:50:45;16.80;87.20
45491;DHT22;31237;45.586;13.782;2022-10-16T16:53:11;16.70;87.30
45491;DHT22;31237;45.586;13.782;2022-10-16T16:55:36;16.70;87.50
45491;DHT22;31237;45.586;13.782;2022-10-16T16:58:02;16.70;87.70
45491;DHT22;31237;45.586;13.782;2022-10-16T17:00:29;16.60;87.80
45491;DHT22;31237;45.586;13.782;2022-10-16T17:02:56;16.60;88.10
45491;DHT22;31237;45.586;13.782;2022-10-16T17:05:22;16.60;88.30
45491;DHT22;31237;45.586;13.782;2022-10-16T17:07:48;16.60;88.40
45491;DHT22;31237;45.586;13.782;2022-10-16T17:10:14;16.60;88.70
45491;DHT22;31237;45.586;13.782;2022-10-16T17:12:40;16.50;88.90
45491;DHT22;31237;45.586;13.782;2022-10-16T17:15:06;16.60;89.20
45491;DHT22;31237;45.586;13.782;2022-10-16T17:17:32;16.50;89.30
45491;DHT22;31237;45.586;13.782;2022-10-16T17:19:58;16.50;89.40
45491;DHT22;31237;45.586;13.782;2022-10-16T17:22:23;16.50;89.60
45491;DHT22;31237;45.586;13.782;2022-10-16T17:24:50;16.50;89.60